RYR40AU EIDW-EGKK
Flight info
| Callsign | RYR40AU |
|---|---|
| Flight time | 1h 9m |
| Altitude | 33000 |
| Route | ENDEQ3J ENDEQ Q36 EPOXI L15 KEPAD L151 DISIT |
| Aircraft | B738/M-SDE3FGIJ1LRWYZ/SB1 |
Departure
| Time | 2026-05-07 19:09 |
|---|---|
| Airport | Dublin Airport (EIDW) |
Arrival
| Time | 2026-05-07 20:19 |
|---|---|
| Airport | London Gatwick Airport (EGKK) |
| Time | Latitude | Longitude | Altitude | Speed | Heading |
|---|---|---|---|---|---|
| 2026-05-07 18:17 | 53.43011 | -6.25009 | 218 ft | 0 kts | 5° |
| 2026-05-07 18:53 | 53.43013 | -6.25008 | 217 ft | 0 kts | 5° |
| 2026-05-07 18:56 | 53.43011 | -6.25009 | 218 ft | 2 kts | 5° |
| 2026-05-07 18:56 | 53.42985 | -6.25012 | 212 ft | 4 kts | 5° |
| 2026-05-07 18:57 | 53.42965 | -6.25015 | 210 ft | 4 kts | 336° |
| 2026-05-07 18:57 | 53.42952 | -6.24987 | 219 ft | 4 kts | 276° |
| 2026-05-07 18:57 | 53.42952 | -6.24997 | 220 ft | 4 kts | 275° |
| 2026-05-07 18:57 | 53.42955 | -6.25043 | 215 ft | 4 kts | 275° |
| 2026-05-07 18:58 | 53.42957 | -6.25088 | 214 ft | 4 kts | 275° |
| 2026-05-07 18:58 | 53.42958 | -6.25108 | 214 ft | 0 kts | 275° |
| 2026-05-07 18:58 | 53.42958 | -6.25102 | 216 ft | 1 kts | 275° |
| 2026-05-07 18:58 | 53.42958 | -6.25098 | 212 ft | 0 kts | 275° |
| 2026-05-07 19:02 | 53.42958 | -6.25099 | 210 ft | 0 kts | 275° |
| 2026-05-07 19:02 | 53.42959 | -6.25126 | 210 ft | 7 kts | 275° |
| 2026-05-07 19:03 | 53.42957 | -6.25247 | 212 ft | 10 kts | 254° |
| 2026-05-07 19:03 | 53.42958 | -6.25353 | 219 ft | 10 kts | 314° |
| 2026-05-07 19:03 | 53.43019 | -6.25406 | 215 ft | 11 kts | 337° |
| 2026-05-07 19:03 | 53.43097 | -6.25461 | 219 ft | 12 kts | 337° |
| 2026-05-07 19:04 | 53.43171 | -6.25514 | 211 ft | 11 kts | 337° |
| 2026-05-07 19:04 | 53.43243 | -6.25567 | 212 ft | 11 kts | 336° |
| 2026-05-07 19:04 | 53.43318 | -6.25622 | 214 ft | 13 kts | 337° |
| 2026-05-07 19:04 | 53.43382 | -6.25646 | 218 ft | 8 kts | 19° |
| 2026-05-07 19:05 | 53.43407 | -6.25559 | 210 ft | 10 kts | 93° |
| 2026-05-07 19:05 | 53.43400 | -6.25427 | 218 ft | 13 kts | 95° |
| 2026-05-07 19:05 | 53.43390 | -6.25255 | 217 ft | 16 kts | 96° |
| 2026-05-07 19:05 | 53.43381 | -6.25080 | 210 ft | 15 kts | 95° |
| 2026-05-07 19:06 | 53.43372 | -6.24919 | 216 ft | 12 kts | 95° |
| 2026-05-07 19:06 | 53.43362 | -6.24745 | 215 ft | 0 kts | 95° |
| 2026-05-07 19:07 | 53.43362 | -6.24739 | 214 ft | 2 kts | 95° |
| 2026-05-07 19:07 | 53.43357 | -6.24660 | 214 ft | 11 kts | 94° |
| 2026-05-07 19:07 | 53.43388 | -6.24556 | 210 ft | 9 kts | 17° |
| 2026-05-07 19:07 | 53.43451 | -6.24548 | 215 ft | 9 kts | 3° |
| 2026-05-07 19:08 | 53.43511 | -6.24558 | 221 ft | 8 kts | 322° |
| 2026-05-07 19:08 | 53.43525 | -6.24606 | 218 ft | 0 kts | 277° |
| 2026-05-07 19:08 | 53.43525 | -6.24607 | 213 ft | 2 kts | 277° |
| 2026-05-07 19:09 | 53.43547 | -6.24971 | 211 ft | 67 kts | 275° |
| 2026-05-07 19:09 | 53.43610 | -6.26121 | 209 ft | 128 kts | 275° |
| 2026-05-07 19:09 | 53.43708 | -6.27855 | 373 ft | 161 kts | 276° |
| 2026-05-07 19:09 | 53.43852 | -6.29696 | 987 ft | 161 kts | 275° |
| 2026-05-07 19:10 | 53.44141 | -6.31552 | 1469 ft | 170 kts | 296° |
| 2026-05-07 19:10 | 53.45010 | -6.33038 | 1816 ft | 190 kts | 317° |
| 2026-05-07 19:10 | 53.46090 | -6.34464 | 2113 ft | 205 kts | 322° |
| 2026-05-07 19:10 | 53.47444 | -6.35382 | 2377 ft | 220 kts | 349° |
| 2026-05-07 19:11 | 53.49015 | -6.35401 | 2584 ft | 230 kts | 0° |
| 2026-05-07 19:11 | 53.50592 | -6.35112 | 3165 ft | 230 kts | 15° |
| 2026-05-07 19:11 | 53.51928 | -6.33630 | 3737 ft | 239 kts | 51° |
| 2026-05-07 19:11 | 53.52602 | -6.31087 | 4326 ft | 242 kts | 84° |
| 2026-05-07 19:12 | 53.52661 | -6.28257 | 5012 ft | 244 kts | 93° |
| 2026-05-07 19:12 | 53.52592 | -6.25400 | 5717 ft | 245 kts | 96° |
| 2026-05-07 19:12 | 53.52413 | -6.22548 | 6433 ft | 246 kts | 99° |
| 2026-05-07 19:12 | 53.52183 | -6.19684 | 7125 ft | 249 kts | 101° |
| 2026-05-07 19:13 | 53.51942 | -6.16793 | 7832 ft | 251 kts | 101° |
| 2026-05-07 19:13 | 53.51699 | -6.13860 | 8471 ft | 259 kts | 99° |
| 2026-05-07 19:13 | 53.51441 | -6.10712 | 8727 ft | 282 kts | 99° |
| 2026-05-07 19:13 | 53.51170 | -6.07377 | 9280 ft | 294 kts | 99° |
| 2026-05-07 19:14 | 53.50900 | -6.03990 | 10149 ft | 292 kts | 99° |
| 2026-05-07 19:14 | 53.50622 | -6.00511 | 10512 ft | 312 kts | 99° |
| 2026-05-07 19:14 | 53.50323 | -5.96762 | 10774 ft | 333 kts | 99° |
| 2026-05-07 19:14 | 53.50010 | -5.92841 | 11238 ft | 345 kts | 99° |
| 2026-05-07 19:15 | 53.49693 | -5.88856 | 12096 ft | 344 kts | 99° |
| 2026-05-07 19:15 | 53.49374 | -5.84848 | 12839 ft | 350 kts | 100° |
| 2026-05-07 19:15 | 53.49046 | -5.80749 | 13503 ft | 357 kts | 100° |
| 2026-05-07 19:15 | 53.48712 | -5.76591 | 14247 ft | 361 kts | 100° |
| 2026-05-07 19:16 | 53.48374 | -5.72406 | 15013 ft | 364 kts | 100° |
| 2026-05-07 19:16 | 53.48031 | -5.68176 | 15756 ft | 367 kts | 100° |
| 2026-05-07 19:16 | 53.47683 | -5.63904 | 16483 ft | 372 kts | 100° |
| 2026-05-07 19:16 | 53.47329 | -5.59589 | 17204 ft | 376 kts | 100° |
| 2026-05-07 19:17 | 53.46969 | -5.55215 | 17931 ft | 380 kts | 100° |
| 2026-05-07 19:17 | 53.46728 | -5.52296 | 18380 ft | 383 kts | 100° |
| 2026-05-07 19:17 | 53.46359 | -5.47852 | 19006 ft | 386 kts | 101° |
| 2026-05-07 19:17 | 53.45859 | -5.41849 | 19856 ft | 391 kts | 101° |
| 2026-05-07 19:18 | 53.45608 | -5.38852 | 20273 ft | 393 kts | 101° |
| 2026-05-07 19:18 | 53.45225 | -5.34290 | 20885 ft | 396 kts | 101° |
| 2026-05-07 19:18 | 53.44837 | -5.29688 | 21500 ft | 400 kts | 101° |
| 2026-05-07 19:18 | 53.44444 | -5.25047 | 22100 ft | 404 kts | 101° |
| 2026-05-07 19:19 | 53.44045 | -5.20370 | 22694 ft | 407 kts | 101° |
| 2026-05-07 19:19 | 53.43668 | -5.15647 | 23264 ft | 411 kts | 98° |
| 2026-05-07 19:19 | 53.43457 | -5.10827 | 23790 ft | 416 kts | 96° |
| 2026-05-07 19:19 | 53.43329 | -5.05972 | 24276 ft | 419 kts | 95° |
| 2026-05-07 19:20 | 53.43214 | -5.01081 | 24774 ft | 421 kts | 95° |
| 2026-05-07 19:20 | 53.43083 | -4.96162 | 25264 ft | 423 kts | 95° |
| 2026-05-07 19:20 | 53.42931 | -4.91218 | 25731 ft | 426 kts | 96° |
| 2026-05-07 19:20 | 53.42767 | -4.86245 | 26200 ft | 428 kts | 96° |
| 2026-05-07 19:21 | 53.42599 | -4.81243 | 26650 ft | 431 kts | 96° |
| 2026-05-07 19:21 | 53.42429 | -4.76215 | 27088 ft | 433 kts | 96° |
| 2026-05-07 19:21 | 53.42256 | -4.71154 | 27537 ft | 436 kts | 96° |
| 2026-05-07 19:21 | 53.42082 | -4.66070 | 27975 ft | 439 kts | 96° |
| 2026-05-07 19:22 | 53.41905 | -4.60947 | 28410 ft | 440 kts | 96° |
| 2026-05-07 19:22 | 53.41726 | -4.55834 | 29003 ft | 438 kts | 96° |
| 2026-05-07 19:22 | 53.41548 | -4.50758 | 29666 ft | 435 kts | 96° |
| 2026-05-07 19:22 | 53.41368 | -4.45716 | 30231 ft | 433 kts | 96° |
| 2026-05-07 19:23 | 53.41185 | -4.40680 | 30661 ft | 433 kts | 96° |
| 2026-05-07 19:23 | 53.41000 | -4.35648 | 31061 ft | 433 kts | 96° |
| 2026-05-07 19:23 | 53.40812 | -4.30595 | 31498 ft | 432 kts | 96° |
| 2026-05-07 19:23 | 53.40624 | -4.25596 | 31954 ft | 431 kts | 96° |
| 2026-05-07 19:24 | 53.40434 | -4.20576 | 32379 ft | 431 kts | 96° |
| 2026-05-07 19:24 | 53.40241 | -4.15575 | 32773 ft | 431 kts | 96° |
| 2026-05-07 19:24 | 53.40049 | -4.10620 | 33005 ft | 434 kts | 96° |
| 2026-05-07 19:24 | 53.39850 | -4.05537 | 32990 ft | 438 kts | 96° |
| 2026-05-07 19:25 | 53.39448 | -3.95406 | 32991 ft | 431 kts | 96° |
| 2026-05-07 19:25 | 53.39039 | -3.85425 | 33014 ft | 430 kts | 96° |
| 2026-05-07 19:26 | 53.38623 | -3.75412 | 33005 ft | 432 kts | 96° |
| 2026-05-07 19:26 | 53.38068 | -3.65392 | 32993 ft | 431 kts | 104° |
| 2026-05-07 19:27 | 53.37267 | -3.60591 | 32995 ft | 427 kts | 115° |
| 2026-05-07 19:27 | 53.36085 | -3.56038 | 33009 ft | 426 kts | 117° |
| 2026-05-07 19:27 | 53.33616 | -3.47021 | 32994 ft | 425 kts | 122° |
| 2026-05-07 19:28 | 53.30116 | -3.39194 | 33023 ft | 419 kts | 135° |
| 2026-05-07 19:28 | 53.26200 | -3.31976 | 33008 ft | 419 kts | 135° |
| 2026-05-07 19:29 | 53.22327 | -3.24718 | 33018 ft | 418 kts | 134° |
| 2026-05-07 19:29 | 53.18474 | -3.17450 | 33010 ft | 418 kts | 135° |
| 2026-05-07 19:30 | 53.14618 | -3.10207 | 33019 ft | 417 kts | 135° |
| 2026-05-07 19:30 | 53.10768 | -3.02998 | 33015 ft | 417 kts | 134° |
| 2026-05-07 19:31 | 53.06915 | -2.95795 | 33022 ft | 417 kts | 134° |
| 2026-05-07 19:31 | 53.03053 | -2.88602 | 33020 ft | 417 kts | 134° |
| 2026-05-07 19:32 | 52.99182 | -2.81420 | 33020 ft | 418 kts | 135° |
| 2026-05-07 19:32 | 52.95298 | -2.74232 | 33012 ft | 418 kts | 135° |
| 2026-05-07 19:33 | 52.91411 | -2.67055 | 33023 ft | 419 kts | 135° |
| 2026-05-07 19:33 | 52.87549 | -2.59939 | 32910 ft | 409 kts | 135° |
| 2026-05-07 19:34 | 52.85663 | -2.56471 | 32636 ft | 401 kts | 135° |
| 2026-05-07 19:34 | 52.83807 | -2.53065 | 32311 ft | 397 kts | 135° |
| 2026-05-07 19:34 | 52.81961 | -2.49692 | 31985 ft | 393 kts | 136° |
| 2026-05-07 19:34 | 52.79978 | -2.46652 | 31613 ft | 387 kts | 147° |
| 2026-05-07 19:35 | 52.77770 | -2.44173 | 31298 ft | 381 kts | 150° |
| 2026-05-07 19:35 | 52.75547 | -2.41791 | 30955 ft | 379 kts | 150° |
| 2026-05-07 19:35 | 52.73343 | -2.39423 | 30598 ft | 377 kts | 150° |
| 2026-05-07 19:35 | 52.71162 | -2.37050 | 30276 ft | 375 kts | 149° |
| 2026-05-07 19:36 | 52.68991 | -2.34667 | 29908 ft | 373 kts | 149° |
| 2026-05-07 19:36 | 52.66847 | -2.32308 | 29527 ft | 370 kts | 149° |
| 2026-05-07 19:36 | 52.64714 | -2.29964 | 29174 ft | 367 kts | 149° |
| 2026-05-07 19:36 | 52.62602 | -2.27647 | 28829 ft | 363 kts | 149° |
| 2026-05-07 19:37 | 52.60505 | -2.25351 | 28456 ft | 361 kts | 149° |
| 2026-05-07 19:37 | 52.58427 | -2.23077 | 28131 ft | 357 kts | 149° |
| 2026-05-07 19:37 | 52.56363 | -2.20822 | 27775 ft | 355 kts | 149° |
| 2026-05-07 19:37 | 52.54320 | -2.18591 | 27455 ft | 352 kts | 149° |
| 2026-05-07 19:38 | 52.52285 | -2.16372 | 27112 ft | 350 kts | 149° |
| 2026-05-07 19:38 | 52.50233 | -2.14136 | 26760 ft | 348 kts | 149° |
| 2026-05-07 19:38 | 52.48229 | -2.11956 | 26449 ft | 345 kts | 149° |
| 2026-05-07 19:38 | 52.46230 | -2.09781 | 26111 ft | 343 kts | 149° |
| 2026-05-07 19:39 | 52.44276 | -2.07659 | 25792 ft | 341 kts | 149° |
| 2026-05-07 19:39 | 52.42277 | -2.05491 | 25462 ft | 339 kts | 149° |
| 2026-05-07 19:39 | 52.40319 | -2.03370 | 25141 ft | 337 kts | 149° |
| 2026-05-07 19:39 | 52.38368 | -2.01258 | 24812 ft | 335 kts | 149° |
| 2026-05-07 19:40 | 52.36425 | -1.99157 | 24498 ft | 334 kts | 149° |
| 2026-05-07 19:40 | 52.34492 | -1.97070 | 24166 ft | 333 kts | 150° |
| 2026-05-07 19:40 | 52.32560 | -1.94987 | 23854 ft | 331 kts | 150° |
| 2026-05-07 19:40 | 52.30640 | -1.92919 | 23514 ft | 331 kts | 150° |
| 2026-05-07 19:41 | 52.28723 | -1.90855 | 23146 ft | 329 kts | 150° |
| 2026-05-07 19:41 | 52.26814 | -1.88805 | 22775 ft | 328 kts | 149° |
| 2026-05-07 19:41 | 52.24918 | -1.86769 | 22496 ft | 324 kts | 149° |
| 2026-05-07 19:41 | 52.23040 | -1.84754 | 22164 ft | 322 kts | 149° |
| 2026-05-07 19:42 | 52.21174 | -1.82754 | 21855 ft | 320 kts | 149° |
| 2026-05-07 19:42 | 52.19316 | -1.80765 | 21537 ft | 318 kts | 149° |
| 2026-05-07 19:42 | 52.17472 | -1.78792 | 21233 ft | 316 kts | 149° |
| 2026-05-07 19:42 | 52.15639 | -1.76832 | 20918 ft | 314 kts | 149° |
| 2026-05-07 19:43 | 52.13817 | -1.74887 | 20618 ft | 313 kts | 149° |
| 2026-05-07 19:43 | 52.12002 | -1.72951 | 20314 ft | 311 kts | 149° |
| 2026-05-07 19:43 | 52.10197 | -1.71029 | 20014 ft | 309 kts | 149° |
| 2026-05-07 19:43 | 52.08400 | -1.69117 | 19752 ft | 309 kts | 149° |
| 2026-05-07 19:44 | 52.06581 | -1.67186 | 19494 ft | 315 kts | 149° |
| 2026-05-07 19:44 | 52.04728 | -1.65221 | 19226 ft | 321 kts | 149° |
| 2026-05-07 19:44 | 52.02845 | -1.63225 | 18926 ft | 324 kts | 149° |
| 2026-05-07 19:44 | 52.00982 | -1.61250 | 18634 ft | 324 kts | 149° |
| 2026-05-07 19:45 | 51.99070 | -1.59224 | 18343 ft | 324 kts | 149° |
| 2026-05-07 19:45 | 51.97185 | -1.57228 | 18024 ft | 323 kts | 149° |
| 2026-05-07 19:45 | 51.95311 | -1.55246 | 17714 ft | 320 kts | 149° |
| 2026-05-07 19:45 | 51.93481 | -1.53312 | 17431 ft | 316 kts | 149° |
| 2026-05-07 19:46 | 51.91625 | -1.51354 | 17149 ft | 312 kts | 149° |
| 2026-05-07 19:46 | 51.89838 | -1.49469 | 16879 ft | 309 kts | 149° |
| 2026-05-07 19:46 | 51.88020 | -1.47556 | 16603 ft | 306 kts | 149° |
| 2026-05-07 19:46 | 51.86243 | -1.45686 | 16338 ft | 305 kts | 149° |
| 2026-05-07 19:47 | 51.84461 | -1.43815 | 16085 ft | 306 kts | 149° |
| 2026-05-07 19:47 | 51.82669 | -1.41933 | 15825 ft | 308 kts | 149° |
| 2026-05-07 19:47 | 51.80868 | -1.40044 | 15564 ft | 310 kts | 149° |
| 2026-05-07 19:47 | 51.79053 | -1.38142 | 15286 ft | 311 kts | 149° |
| 2026-05-07 19:48 | 51.77243 | -1.36249 | 15080 ft | 309 kts | 149° |
| 2026-05-07 19:48 | 51.75447 | -1.34370 | 15035 ft | 306 kts | 149° |
| 2026-05-07 19:48 | 51.73663 | -1.32508 | 15026 ft | 306 kts | 149° |
| 2026-05-07 19:48 | 51.71876 | -1.30646 | 15028 ft | 307 kts | 149° |
| 2026-05-07 19:49 | 51.70081 | -1.28776 | 15028 ft | 307 kts | 149° |
| 2026-05-07 19:49 | 51.68290 | -1.26912 | 15042 ft | 307 kts | 149° |
| 2026-05-07 19:49 | 51.66496 | -1.25045 | 15042 ft | 306 kts | 149° |
| 2026-05-07 19:49 | 51.64708 | -1.23186 | 15045 ft | 306 kts | 149° |
| 2026-05-07 19:50 | 51.62919 | -1.21329 | 15044 ft | 305 kts | 149° |
| 2026-05-07 19:50 | 51.61136 | -1.19479 | 15047 ft | 305 kts | 149° |
| 2026-05-07 19:50 | 51.59351 | -1.17628 | 15049 ft | 305 kts | 149° |
| 2026-05-07 19:50 | 51.57569 | -1.15783 | 15050 ft | 305 kts | 149° |
| 2026-05-07 19:51 | 51.55784 | -1.13936 | 15050 ft | 305 kts | 149° |
| 2026-05-07 19:51 | 51.53998 | -1.12090 | 15051 ft | 306 kts | 149° |
| 2026-05-07 19:51 | 51.52205 | -1.10239 | 15050 ft | 306 kts | 149° |
| 2026-05-07 19:51 | 51.50411 | -1.08387 | 15051 ft | 307 kts | 149° |
| 2026-05-07 19:52 | 51.48615 | -1.06536 | 15049 ft | 307 kts | 149° |
| 2026-05-07 19:52 | 51.46818 | -1.04686 | 15047 ft | 307 kts | 149° |
| 2026-05-07 19:52 | 51.45019 | -1.02835 | 15049 ft | 307 kts | 149° |
| 2026-05-07 19:52 | 51.43199 | -1.00964 | 15050 ft | 307 kts | 149° |
| 2026-05-07 19:53 | 51.41412 | -0.99085 | 15048 ft | 308 kts | 147° |
| 2026-05-07 19:53 | 51.39678 | -0.97082 | 15052 ft | 308 kts | 146° |
| 2026-05-07 19:53 | 51.37951 | -0.95042 | 15046 ft | 308 kts | 146° |
| 2026-05-07 19:53 | 51.36234 | -0.93009 | 15053 ft | 308 kts | 146° |
| 2026-05-07 19:54 | 51.34515 | -0.90974 | 15053 ft | 307 kts | 146° |
| 2026-05-07 19:54 | 51.32796 | -0.88939 | 15053 ft | 307 kts | 146° |
| 2026-05-07 19:54 | 51.31078 | -0.86907 | 15048 ft | 308 kts | 146° |
| 2026-05-07 19:54 | 51.29359 | -0.84873 | 15050 ft | 308 kts | 146° |
| 2026-05-07 19:55 | 51.27632 | -0.82831 | 15049 ft | 308 kts | 146° |
| 2026-05-07 19:55 | 51.25912 | -0.80797 | 15049 ft | 308 kts | 146° |
| 2026-05-07 19:55 | 51.24188 | -0.78761 | 15049 ft | 308 kts | 146° |
| 2026-05-07 19:55 | 51.22465 | -0.76726 | 15049 ft | 308 kts | 146° |
| 2026-05-07 19:56 | 51.20744 | -0.74695 | 15050 ft | 308 kts | 146° |
| 2026-05-07 19:56 | 51.19017 | -0.72660 | 15052 ft | 308 kts | 146° |
| 2026-05-07 19:56 | 51.17874 | -0.71313 | 15050 ft | 309 kts | 146° |
| 2026-05-07 19:56 | 51.16148 | -0.69280 | 15048 ft | 309 kts | 146° |
| 2026-05-07 19:57 | 51.14397 | -0.67219 | 15072 ft | 309 kts | 146° |
| 2026-05-07 19:57 | 51.12672 | -0.65191 | 15075 ft | 308 kts | 146° |
| 2026-05-07 19:57 | 51.10945 | -0.63158 | 15070 ft | 309 kts | 145° |
| 2026-05-07 19:57 | 51.09296 | -0.61002 | 14974 ft | 306 kts | 141° |
| 2026-05-07 19:58 | 51.07701 | -0.58790 | 14724 ft | 303 kts | 141° |
| 2026-05-07 19:58 | 51.06138 | -0.56644 | 14358 ft | 304 kts | 141° |
| 2026-05-07 19:58 | 51.04533 | -0.54476 | 14028 ft | 304 kts | 142° |
| 2026-05-07 19:58 | 51.02923 | -0.52319 | 13709 ft | 302 kts | 142° |
| 2026-05-07 19:59 | 51.01442 | -0.49984 | 13312 ft | 300 kts | 126° |
| 2026-05-07 19:59 | 51.00446 | -0.47070 | 12739 ft | 301 kts | 118° |
| 2026-05-07 19:59 | 50.99529 | -0.44073 | 12134 ft | 302 kts | 117° |
| 2026-05-07 19:59 | 50.98614 | -0.41069 | 11588 ft | 301 kts | 118° |
| 2026-05-07 20:00 | 50.97699 | -0.38092 | 11073 ft | 300 kts | 118° |
| 2026-05-07 20:00 | 50.96779 | -0.35130 | 10555 ft | 298 kts | 118° |
| 2026-05-07 20:00 | 50.95846 | -0.32149 | 10050 ft | 298 kts | 118° |
| 2026-05-07 20:00 | 50.94925 | -0.29221 | 9514 ft | 296 kts | 118° |
| 2026-05-07 20:01 | 50.94020 | -0.26354 | 9056 ft | 292 kts | 118° |
| 2026-05-07 20:01 | 50.93115 | -0.23497 | 8613 ft | 288 kts | 117° |
| 2026-05-07 20:01 | 50.92210 | -0.20640 | 8169 ft | 284 kts | 117° |
| 2026-05-07 20:01 | 50.91317 | -0.17827 | 8100 ft | 288 kts | 117° |
| 2026-05-07 20:02 | 50.90414 | -0.14988 | 8053 ft | 288 kts | 117° |
| 2026-05-07 20:02 | 50.89519 | -0.12178 | 8047 ft | 284 kts | 117° |
| 2026-05-07 20:02 | 50.88632 | -0.09393 | 8042 ft | 283 kts | 116° |
| 2026-05-07 20:02 | 50.88161 | -0.06390 | 8046 ft | 285 kts | 87° |
| 2026-05-07 20:03 | 50.88698 | -0.03405 | 8065 ft | 285 kts | 58° |
| 2026-05-07 20:03 | 50.90047 | -0.01143 | 8061 ft | 284 kts | 31° |
| 2026-05-07 20:03 | 50.91888 | -0.00102 | 8060 ft | 283 kts | 4° |
| 2026-05-07 20:03 | 50.93815 | -0.00507 | 8063 ft | 281 kts | 336° |
| 2026-05-07 20:04 | 50.95394 | -0.02269 | 8066 ft | 279 kts | 309° |
| 2026-05-07 20:04 | 50.96306 | -0.04807 | 8061 ft | 276 kts | 287° |
| 2026-05-07 20:04 | 50.96786 | -0.07754 | 8057 ft | 273 kts | 283° |
| 2026-05-07 20:04 | 50.97213 | -0.10662 | 8034 ft | 260 kts | 283° |
| 2026-05-07 20:05 | 50.97615 | -0.13345 | 8024 ft | 240 kts | 283° |
| 2026-05-07 20:05 | 50.97997 | -0.15853 | 8027 ft | 228 kts | 283° |
| 2026-05-07 20:05 | 50.98367 | -0.18263 | 8047 ft | 223 kts | 283° |
| 2026-05-07 20:05 | 50.98583 | -0.20704 | 8044 ft | 227 kts | 263° |
| 2026-05-07 20:06 | 50.97995 | -0.23029 | 8061 ft | 233 kts | 231° |
| 2026-05-07 20:06 | 50.96704 | -0.24570 | 8056 ft | 237 kts | 201° |
| 2026-05-07 20:06 | 50.95081 | -0.24797 | 8045 ft | 238 kts | 168° |
| 2026-05-07 20:06 | 50.93633 | -0.23581 | 8042 ft | 240 kts | 134° |
| 2026-05-07 20:07 | 50.92822 | -0.21295 | 8065 ft | 240 kts | 108° |
| 2026-05-07 20:07 | 50.92388 | -0.18727 | 8053 ft | 242 kts | 104° |
| 2026-05-07 20:07 | 50.91999 | -0.16135 | 8056 ft | 243 kts | 104° |
| 2026-05-07 20:07 | 50.91602 | -0.13525 | 8053 ft | 244 kts | 104° |
| 2026-05-07 20:08 | 50.91255 | -0.10888 | 8042 ft | 245 kts | 92° |
| 2026-05-07 20:08 | 50.91659 | -0.08320 | 8060 ft | 242 kts | 56° |
| 2026-05-07 20:08 | 50.92892 | -0.06584 | 8053 ft | 239 kts | 21° |
| 2026-05-07 20:08 | 50.94492 | -0.05988 | 8046 ft | 237 kts | 355° |
| 2026-05-07 20:09 | 50.96054 | -0.06736 | 8051 ft | 238 kts | 324° |
| 2026-05-07 20:09 | 50.97146 | -0.08650 | 7910 ft | 235 kts | 294° |
| 2026-05-07 20:09 | 50.97505 | -0.11162 | 7638 ft | 236 kts | 273° |
| 2026-05-07 20:10 | 50.97609 | -0.16419 | 7115 ft | 238 kts | 271° |
| 2026-05-07 20:10 | 50.97639 | -0.19044 | 6902 ft | 238 kts | 271° |
| 2026-05-07 20:10 | 50.97665 | -0.21668 | 6687 ft | 238 kts | 271° |
| 2026-05-07 20:10 | 50.97687 | -0.24295 | 6476 ft | 239 kts | 271° |
| 2026-05-07 20:11 | 50.97708 | -0.26932 | 6231 ft | 239 kts | 271° |
| 2026-05-07 20:11 | 50.97729 | -0.29570 | 5986 ft | 240 kts | 271° |
| 2026-05-07 20:11 | 50.97751 | -0.32219 | 5722 ft | 241 kts | 271° |
| 2026-05-07 20:11 | 50.97775 | -0.34867 | 5514 ft | 240 kts | 271° |
| 2026-05-07 20:12 | 50.97801 | -0.37516 | 5298 ft | 239 kts | 271° |
| 2026-05-07 20:12 | 50.97829 | -0.40158 | 5067 ft | 240 kts | 271° |
| 2026-05-07 20:12 | 50.97884 | -0.42799 | 4837 ft | 240 kts | 278° |
| 2026-05-07 20:12 | 50.98507 | -0.45172 | 4740 ft | 231 kts | 311° |
| 2026-05-07 20:13 | 50.99770 | -0.46605 | 4696 ft | 219 kts | 338° |
| 2026-05-07 20:13 | 51.01144 | -0.47484 | 4642 ft | 207 kts | 340° |
| 2026-05-07 20:13 | 51.02455 | -0.48283 | 4515 ft | 196 kts | 340° |
| 2026-05-07 20:13 | 51.03725 | -0.49053 | 4213 ft | 195 kts | 341° |
| 2026-05-07 20:14 | 51.04989 | -0.49819 | 3915 ft | 195 kts | 341° |
| 2026-05-07 20:14 | 51.06253 | -0.50576 | 3689 ft | 192 kts | 345° |
| 2026-05-07 20:14 | 51.07537 | -0.50601 | 3506 ft | 184 kts | 24° |
| 2026-05-07 20:14 | 51.08525 | -0.49427 | 3403 ft | 181 kts | 49° |
| 2026-05-07 20:15 | 51.09390 | -0.47906 | 3276 ft | 185 kts | 50° |
| 2026-05-07 20:15 | 51.10240 | -0.46377 | 3148 ft | 184 kts | 50° |
| 2026-05-07 20:15 | 51.11060 | -0.44827 | 3020 ft | 183 kts | 60° |
| 2026-05-07 20:15 | 51.11464 | -0.42945 | 3011 ft | 180 kts | 78° |
| 2026-05-07 20:16 | 51.11769 | -0.41010 | 2853 ft | 185 kts | 77° |
| 2026-05-07 20:16 | 51.12065 | -0.38995 | 2593 ft | 183 kts | 78° |
| 2026-05-07 20:16 | 51.12334 | -0.37058 | 2351 ft | 180 kts | 79° |
| 2026-05-07 20:16 | 51.12598 | -0.35124 | 2113 ft | 177 kts | 79° |
| 2026-05-07 20:17 | 51.12864 | -0.33182 | 1867 ft | 178 kts | 79° |
| 2026-05-07 20:17 | 51.13124 | -0.31291 | 1640 ft | 176 kts | 79° |
| 2026-05-07 20:17 | 51.13382 | -0.29424 | 1385 ft | 165 kts | 79° |
| 2026-05-07 20:17 | 51.13620 | -0.27694 | 1176 ft | 152 kts | 79° |
| 2026-05-07 20:18 | 51.13847 | -0.26047 | 946 ft | 152 kts | 78° |
| 2026-05-07 20:18 | 51.14068 | -0.24434 | 732 ft | 147 kts | 78° |
| 2026-05-07 20:18 | 51.14280 | -0.22892 | 534 ft | 144 kts | 77° |
| 2026-05-07 20:18 | 51.14500 | -0.21321 | 316 ft | 143 kts | 77° |
| 2026-05-07 20:19 | 51.14709 | -0.19811 | 208 ft | 135 kts | 78° |
| 2026-05-07 20:19 | 51.14877 | -0.18579 | 211 ft | 93 kts | 77° |
| 2026-05-07 20:19 | 51.15014 | -0.17885 | 210 ft | 35 kts | 54° |
| 2026-05-07 20:19 | 51.15065 | -0.17787 | 206 ft | 3 kts | 41° |
| 2026-05-07 20:20 | 51.15121 | -0.17756 | 205 ft | 10 kts | 6° |
| 2026-05-07 20:20 | 51.15202 | -0.17776 | 204 ft | 13 kts | 350° |
| 2026-05-07 20:20 | 51.15259 | -0.17774 | 204 ft | 0 kts | 29° |
| 2026-05-07 20:20 | 51.15261 | -0.17756 | 208 ft | 4 kts | 79° |
| 2026-05-07 20:21 | 51.15270 | -0.17680 | 205 ft | 9 kts | 78° |
| 2026-05-07 20:21 | 51.15283 | -0.17585 | 204 ft | 8 kts | 78° |
| 2026-05-07 20:21 | 51.15293 | -0.17500 | 206 ft | 8 kts | 80° |
| 2026-05-07 20:21 | 51.15296 | -0.17476 | 204 ft | 0 kts | 79° |
| 2026-05-07 20:22 | 51.15296 | -0.17475 | 204 ft | 1 kts | 79° |
| 2026-05-07 20:22 | 51.15301 | -0.17436 | 209 ft | 7 kts | 79° |
| 2026-05-07 20:22 | 51.15347 | -0.17356 | 210 ft | 13 kts | 41° |
| 2026-05-07 20:22 | 51.15381 | -0.17216 | 208 ft | 14 kts | 74° |
| 2026-05-07 20:23 | 51.15415 | -0.17074 | 204 ft | 13 kts | 77° |
| 2026-05-07 20:23 | 51.15433 | -0.16942 | 210 ft | 12 kts | 77° |
| 2026-05-07 20:23 | 51.15447 | -0.16841 | 213 ft | 5 kts | 80° |
| 2026-05-07 20:23 | 51.15452 | -0.16788 | 211 ft | 5 kts | 71° |
| 2026-05-07 20:24 | 51.15479 | -0.16774 | 204 ft | 3 kts | 354° |
| 2026-05-07 20:24 | 51.15497 | -0.16780 | 204 ft | 2 kts | 348° |
| 2026-05-07 20:24 | 51.15505 | -0.16782 | 215 ft | 0 kts | 348° |